Time;durP1;ratioP1;P1;durP2;ratioP2;P2;SDS_P1;SDS_P2;PMS_P1;PMS_P2;Temp;Humidity;BMP_temperature;BMP_pressure;BME280_temperature;BME280_humidity;BME280_pressure;Samples;Min_cycle;Max_cycle;Signal;HPM_P1;HPM_P2
2023/10/06 00:00:42;;;;;;;1.20;1.10;;;14.60;99.90;14.60;101526.00;;;;5004408;27;109896;-66
2023/10/06 00:03:10;;;;;;;2.70;1.90;;;14.60;99.90;14.60;101517.00;;;;4998862;27;87852;-66
2023/10/06 00:05:39;;;;;;;1.95;1.48;;;14.60;99.90;14.70;101529.00;;;;5005897;27;88762;-67
2023/10/06 00:08:05;;;;;;;1.30;1.20;;;14.60;99.90;14.60;101532.00;;;;5004536;27;118264;-67
2023/10/06 00:10:32;;;;;;;2.42;1.63;;;14.60;99.90;14.60;101523.00;;;;4989773;27;87937;-66
2023/10/06 00:13:04;;;;;;;4.37;1.43;;;14.60;99.90;14.60;101530.00;;;;5007294;27;88035;-65
2023/10/06 00:15:38;;;;;;;4.30;2.08;;;14.60;99.90;14.60;101530.00;;;;5008867;27;87797;-68
2023/10/06 00:18:09;;;;;;;5.78;1.90;;;14.60;99.90;14.60;101527.00;;;;4988275;27;87521;-66
2023/10/06 00:20:39;;;;;;;1.88;1.38;;;14.50;99.90;14.50;101521.00;;;;5010061;27;88308;-65
2023/10/06 00:23:12;;;;;;;1.92;1.48;;;14.50;99.90;14.50;101522.00;;;;5006250;27;87892;-66
2023/10/06 00:25:42;;;;;;;1.70;1.58;;;14.50;99.90;14.50;101518.00;;;;5007589;27;88777;-66
2023/10/06 00:28:19;;;;;;;9.73;1.35;;;14.40;99.90;14.50;101516.00;;;;5008201;27;88748;-65
2023/10/06 00:30:47;;;;;;;2.00;1.38;;;14.40;99.90;14.40;101516.00;;;;4992279;27;88532;-66
2023/10/06 00:33:15;;;;;;;1.15;1.05;;;14.40;99.90;14.40;101512.00;;;;5008105;27;88595;-66
2023/10/06 00:35:41;;;;;;;1.63;1.52;;;14.40;99.90;14.40;101511.00;;;;5005401;27;87885;-66
2023/10/06 00:38:16;;;;;;;3.15;1.90;;;14.30;99.90;14.30;101500.00;;;;5007247;27;106672;-66
2023/10/06 00:40:51;;;;;;;3.33;1.20;;;14.30;99.90;14.30;101512.00;;;;5008849;27;87871;-66
2023/10/06 00:43:39;;;;;;;3.17;1.83;;;14.30;99.90;14.20;101506.00;;;;5006700;27;87069;-66
2023/10/06 00:46:09;;;;;;;2.22;1.35;;;14.30;99.90;14.20;101509.00;;;;4998108;27;87877;-65
2023/10/06 00:48:41;;;;;;;1.88;1.02;;;14.20;99.90;14.20;101513.00;;;;5009859;27;111210;-65
2023/10/06 00:51:28;;;;;;;2.83;1.25;;;14.20;99.90;14.20;101508.00;;;;5006570;27;88853;-66
2023/10/06 00:53:56;;;;;;;1.88;1.52;;;14.10;99.90;14.10;101499.00;;;;5008453;27;87971;-66
2023/10/06 00:56:27;;;;;;;5.82;2.30;;;14.10;99.90;14.10;101507.00;;;;4985048;27;87781;-66
2023/10/06 00:58:54;;;;;;;3.08;1.67;;;14.10;99.90;14.10;101514.00;;;;5009092;27;88138;-66
2023/10/06 01:01:21;;;;;;;1.02;1.00;;;14.10;99.90;14.10;101512.00;;;;5009792;27;88797;-65
2023/10/06 01:06:38;;;;;;;3.85;1.77;;;14.10;99.90;14.10;101510.00;;;;5008870;27;89764;-68
2023/10/06 01:09:12;;;;;;;1.98;1.13;;;14.10;99.90;14.20;101512.00;;;;5001648;27;87400;-65
2023/10/06 01:11:50;;;;;;;2.83;1.53;;;14.10;99.90;14.20;101505.00;;;;5010086;27;88041;-66
2023/10/06 01:14:22;;;;;;;2.78;1.70;;;14.10;99.90;14.10;101512.00;;;;5010736;27;87675;-65
2023/10/06 01:16:50;;;;;;;1.40;1.30;;;14.10;99.90;14.10;101512.00;;;;5000012;27;88947;-65
2023/10/06 01:19:33;;;;;;;6.43;1.92;;;14.10;99.90;14.10;101511.00;;;;5011363;27;87733;-65
2023/10/06 01:22:07;;;;;;;3.35;1.80;;;14.10;99.90;14.10;101510.00;;;;5014619;27;88061;-65
2023/10/06 01:24:33;;;;;;;0.98;0.95;;;14.10;99.90;14.10;101513.00;;;;5008377;27;88206;-66
2023/10/06 01:27:05;;;;;;;4.13;1.90;;;14.10;99.90;14.10;101508.00;;;;5005752;27;88452;-66
2023/10/06 01:29:32;;;;;;;1.97;1.57;;;14.10;99.90;14.10;101509.00;;;;5007793;27;89106;-67
2023/10/06 01:32:15;;;;;;;1.95;1.60;;;14.10;99.90;14.10;101499.00;;;;5008483;27;106292;-66
2023/10/06 01:34:41;;;;;;;3.93;1.27;;;14.00;99.90;14.00;101505.00;;;;5009502;27;87292;-66
2023/10/06 01:37:09;;;;;;;3.70;2.17;;;14.00;99.90;14.00;101508.00;;;;5009110;27;88090;-66
2023/10/06 01:39:35;;;;;;;2.80;2.10;;;14.00;99.90;14.00;101501.00;;;;4992218;27;87982;-67
2023/10/06 01:42:16;;;;;;;4.18;2.63;;;14.00;99.90;14.00;101502.00;;;;5007628;27;89183;-65
2023/10/06 01:44:42;;;;;;;1.90;1.45;;;14.00;99.90;14.00;101495.00;;;;5005652;27;88015;-68
2023/10/06 01:47:07;;;;;;;2.43;1.77;;;14.00;99.90;14.00;101494.00;;;;4992493;27;109173;-66
2023/10/06 01:49:36;;;;;;;3.23;2.17;;;13.90;99.90;14.00;101494.00;;;;5007634;27;117212;-65
2023/10/06 01:52:05;;;;;;;3.25;1.67;;;13.90;99.90;13.90;101501.00;;;;5005813;27;88412;-67
2023/10/06 01:54:34;;;;;;;2.90;1.70;;;13.90;99.90;13.90;101507.00;;;;5005784;27;89032;-65
2023/10/06 01:57:04;;;;;;;3.67;2.03;;;13.90;99.90;13.90;101500.00;;;;5010957;27;88330;-66
2023/10/06 01:59:30;;;;;;;1.67;1.48;;;13.90;99.90;13.90;101489.00;;;;5009942;27;87646;-65
2023/10/06 02:02:00;;;;;;;1.90;1.80;;;13.80;99.90;13.80;101490.00;;;;5006225;27;87876;-66
2023/10/06 02:04:26;;;;;;;1.58;1.17;;;13.80;99.90;13.80;101488.00;;;;5007189;27;87767;-66
2023/10/06 02:06:52;;;;;;;6.30;2.20;;;13.80;99.90;13.70;101494.00;;;;5005724;27;89054;-66
2023/10/06 02:09:20;;;;;;;2.10;1.90;;;13.70;99.90;13.70;101491.00;;;;5005158;27;118866;-67
2023/10/06 02:11:51;;;;;;;2.77;2.10;;;13.60;99.90;13.60;101487.00;;;;4989803;27;87993;-66
2023/10/06 02:14:17;;;;;;;2.10;1.53;;;13.60;99.90;13.60;101494.00;;;;5004629;27;88094;-65
2023/10/06 02:16:48;;;;;;;1.77;1.67;;;13.60;99.90;13.60;101489.00;;;;5006486;27;89432;-65
2023/10/06 02:19:17;;;;;;;3.50;2.17;;;13.60;99.90;13.50;101492.00;;;;5008765;27;89605;-65
2023/10/06 02:21:49;;;;;;;3.13;2.10;;;13.50;99.90;13.50;101493.00;;;;5006222;27;88783;-66
2023/10/06 02:24:16;;;;;;;2.30;1.60;;;13.50;99.90;13.40;101487.00;;;;5007245;27;87270;-66
2023/10/06 02:26:43;;;;;;;9.57;2.90;;;13.40;99.90;13.40;101486.00;;;;5004968;27;87747;-66
2023/10/06 02:29:22;;;;;;;2.03;1.83;;;13.40;99.90;13.40;101480.00;;;;5003489;27;89000;-66
2023/10/06 02:31:51;;;;;;;2.30;1.73;;;13.40;99.90;13.40;101487.00;;;;5011011;27;88745;-66
2023/10/06 02:34:29;;;;;;;4.37;2.00;;;13.40;99.90;13.30;101492.00;;;;5008257;27;87883;-66
2023/10/06 02:37:02;;;;;;;3.60;2.50;;;13.40;99.90;13.30;101491.00;;;;5006955;27;88112;-66
2023/10/06 02:39:34;;;;;;;5.77;2.63;;;13.30;99.90;13.30;101489.00;;;;5010941;27;88456;-66
2023/10/06 02:42:07;;;;;;;1.73;1.13;;;13.30;99.90;13.20;101494.00;;;;5007345;27;88042;-66
2023/10/06 02:44:37;;;;;;;3.13;2.13;;;13.30;99.90;13.20;101494.00;;;;5004872;27;89264;-66
2023/10/06 02:47:04;;;;;;;3.00;2.10;;;13.20;99.90;13.20;101493.00;;;;5005299;27;88101;-66
2023/10/06 02:49:35;;;;;;;2.93;1.57;;;13.20;99.90;13.20;101489.00;;;;5003997;27;87085;-66
2023/10/06 02:52:16;;;;;;;2.27;1.80;;;13.20;99.90;13.20;101483.00;;;;5006596;27;87994;-67
2023/10/06 02:54:47;;;;;;;4.60;2.40;;;13.20;99.90;13.10;101490.00;;;;4989373;27;87801;-67
2023/10/06 02:57:13;;;;;;;2.60;2.40;;;13.10;99.90;13.10;101494.00;;;;5002581;27;88882;-65
2023/10/06 02:59:38;;;;;;;2.13;1.93;;;13.10;99.90;13.10;101490.00;;;;5004352;27;88831;-66
2023/10/06 03:02:15;;;;;;;3.10;2.27;;;13.10;99.90;13.10;101483.00;;;;5005417;27;88667;-65
2023/10/06 03:04:43;;;;;;;5.57;2.10;;;13.10;99.90;13.10;101476.00;;;;5008205;27;90228;-65
2023/10/06 03:07:14;;;;;;;2.17;1.97;;;13.10;99.90;13.10;101475.00;;;;5007467;27;87957;-66
2023/10/06 03:09:45;;;;;;;4.80;1.60;;;13.20;99.90;13.10;101473.00;;;;5006205;27;88038;-66
2023/10/06 03:12:31;;;;;;;1.83;1.43;;;13.10;99.90;13.10;101469.00;;;;5010297;27;89713;-66
2023/10/06 03:14:57;;;;;;;1.80;1.23;;;13.10;99.90;13.00;101458.00;;;;5006736;27;87411;-66
2023/10/06 03:17:23;;;;;;;4.80;1.90;;;13.10;99.90;13.00;101468.00;;;;5006887;27;107894;-66
2023/10/06 03:20:03;;;;;;;3.40;1.70;;;13.00;99.90;13.00;101471.00;;;;5004635;27;88165;-66
2023/10/06 03:22:30;;;;;;;2.03;1.37;;;13.00;99.90;13.00;101471.00;;;;5010554;27;88521;-68
2023/10/06 03:25:00;;;;;;;2.57;2.23;;;13.00;99.90;13.00;101478.00;;;;5006804;27;89168;-66
2023/10/06 03:27:26;;;;;;;2.87;1.77;;;13.00;99.90;12.90;101471.00;;;;5004831;27;88192;-66
2023/10/06 03:29:55;;;;;;;7.40;2.03;;;12.90;99.90;12.90;101481.00;;;;5008553;27;88806;-66
2023/10/06 03:32:38;;;;;;;2.20;1.77;;;13.00;99.90;12.90;101483.00;;;;5004162;27;88169;-66
2023/10/06 03:35:17;;;;;;;2.83;2.27;;;12.90;99.90;12.90;101480.00;;;;5010766;27;88037;-66
2023/10/06 03:37:52;;;;;;;2.03;1.47;;;12.90;99.90;12.90;101489.00;;;;5007530;27;88789;-66
2023/10/06 03:41:09;;;;;;;2.20;1.97;;;12.90;99.90;12.90;101490.00;;;;5009869;27;88240;-66
2023/10/06 03:43:15;;;;;;;2.20;1.60;;;12.90;99.90;12.90;101497.00;;;;4986253;27;87972;-66
2023/10/06 03:45:43;;;;;;;2.80;1.30;;;12.80;99.90;12.90;101487.00;;;;5006856;27;88537;-66
2023/10/06 03:48:13;;;;;;;3.93;2.63;;;12.90;99.90;12.90;101488.00;;;;5008515;27;88718;-66
2023/10/06 03:50:43;;;;;;;2.77;2.17;;;12.90;99.90;12.90;101494.00;;;;5006051;27;88913;-66
2023/10/06 03:53:14;;;;;;;6.10;2.53;;;12.90;99.90;12.90;101495.00;;;;5003410;27;102629;-66
2023/10/06 03:55:42;;;;;;;1.60;1.50;;;12.90;99.90;13.00;101493.00;;;;5007251;27;88374;-66
2023/10/06 03:58:10;;;;;;;2.23;1.60;;;12.90;99.90;13.00;101488.00;;;;4988298;27;88046;-65
2023/10/06 04:00:40;;;;;;;1.23;1.13;;;13.00;99.90;13.00;101481.00;;;;5005090;27;89769;-67
2023/10/06 04:03:09;;;;;;;2.23;1.87;;;13.00;99.90;13.00;101488.00;;;;5001558;27;89265;-67
2023/10/06 04:05:37;;;;;;;4.23;1.97;;;13.00;99.90;13.00;101489.00;;;;5004976;27;87332;-67
2023/10/06 04:08:15;;;;;;;3.53;2.13;;;13.00;99.90;13.00;101493.00;;;;4988717;27;87994;-66
2023/10/06 04:10:42;;;;;;;0.87;0.87;;;13.00;99.90;13.10;101489.00;;;;4993618;27;89452;-66
2023/10/06 04:13:09;;;;;;;2.20;1.07;;;13.10;99.90;13.10;101497.00;;;;5005057;27;89993;-66
2023/10/06 04:15:39;;;;;;;1.73;1.60;;;13.10;99.90;13.20;101496.00;;;;5007905;27;88809;-66
2023/10/06 04:18:09;;;;;;;1.80;1.10;;;13.10;99.90;13.20;101491.00;;;;5009728;27;88184;-66
2023/10/06 04:20:42;;;;;;;5.27;1.90;;;13.20;99.90;13.20;101494.00;;;;5007748;27;89111;-67
2023/10/06 04:23:12;;;;;;;0.97;0.93;;;13.20;99.90;13.20;101493.00;;;;5011569;27;87917;-66
2023/10/06 04:25:39;;;;;;;3.10;1.63;;;13.20;99.90;13.30;101501.00;;;;5009129;27;88239;-66
2023/10/06 04:28:15;;;;;;;3.60;1.93;;;13.20;99.90;13.30;101502.00;;;;5007289;27;91603;-65
2023/10/06 04:30:43;;;;;;;1.53;1.20;;;13.30;99.90;13.30;101491.00;;;;5010538;27;88272;-65
2023/10/06 04:33:11;;;;;;;1.80;0.87;;;13.40;99.90;13.30;101500.00;;;;4997943;27;87682;-66
2023/10/06 04:35:55;;;;;;;1.93;1.30;;;13.30;99.90;13.30;101503.00;;;;4990704;27;88236;-66
2023/10/06 04:38:29;;;;;;;5.07;1.97;;;13.30;99.90;13.30;101498.00;;;;5007923;27;89254;-66
2023/10/06 04:40:56;;;;;;;1.30;1.20;;;13.30;99.90;13.30;101502.00;;;;5008610;27;88607;-66
2023/10/06 04:43:23;;;;;;;6.00;2.23;;;13.30;99.90;13.40;101501.00;;;;5007245;27;88007;-66
2023/10/06 04:45:50;;;;;;;3.70;2.10;;;13.30;99.90;13.40;101499.00;;;;5008631;27;87817;-66
2023/10/06 04:48:18;;;;;;;1.97;1.43;;;13.30;99.90;13.40;101496.00;;;;5007463;27;89182;-66
2023/10/06 04:50:45;;;;;;;3.27;1.50;;;13.30;99.90;13.40;101496.00;;;;5011752;27;89717;-66
2023/10/06 04:53:11;;;;;;;1.93;1.10;;;13.40;99.90;13.40;101502.00;;;;5009284;27;88516;-66
2023/10/06 04:55:40;;;;;;;1.55;1.25;;;13.40;99.90;13.40;101499.00;;;;5010180;27;87307;-66
2023/10/06 04:58:13;;;;;;;1.97;1.50;;;13.40;99.90;13.40;101498.00;;;;5007781;27;108562;-66
2023/10/06 05:00:39;;;;;;;4.60;1.80;;;13.40;99.90;13.40;101494.00;;;;5009834;27;88472;-66
2023/10/06 05:03:06;;;;;;;3.40;1.70;;;13.40;99.90;13.40;101507.00;;;;4986866;27;104514;-66
2023/10/06 05:05:37;;;;;;;2.63;1.43;;;13.40;99.90;13.40;101500.00;;;;4987564;27;87883;-66
2023/10/06 05:08:04;;;;;;;1.63;1.52;;;13.40;99.90;13.40;101499.00;;;;4992858;27;88038;-65
2023/10/06 05:10:31;;;;;;;1.27;1.13;;;13.40;99.90;13.40;101505.00;;;;5004498;27;88796;-66
2023/10/06 05:13:05;;;;;;;2.20;1.60;;;13.30;99.90;13.40;101505.00;;;;5005295;27;88554;-66
2023/10/06 05:15:31;;;;;;;2.37;1.63;;;13.30;99.90;13.30;101501.00;;;;5010172;27;88330;-66
2023/10/06 05:17:58;;;;;;;2.07;1.60;;;13.30;99.90;13.30;101506.00;;;;5008390;27;88070;-67
2023/10/06 05:20:30;;;;;;;2.87;1.80;;;13.30;99.90;13.20;101509.00;;;;5004994;27;90129;-67
2023/10/06 05:23:09;;;;;;;1.97;1.60;;;13.20;99.90;13.20;101514.00;;;;4987427;27;88054;-66
2023/10/06 05:25:39;;;;;;;1.03;1.00;;;13.20;99.90;13.10;101508.00;;;;5007845;27;88410;-65
2023/10/06 05:28:10;;;;;;;1.67;1.33;;;13.10;99.90;13.10;101514.00;;;;5008398;27;89102;-65
2023/10/06 05:30:38;;;;;;;2.37;1.30;;;13.10;99.90;13.00;101511.00;;;;5006182;27;89087;-65
2023/10/06 05:33:11;;;;;;;1.80;1.60;;;13.00;99.90;12.90;101516.00;;;;5002980;27;88535;-65
2023/10/06 05:35:41;;;;;;;1.37;1.27;;;13.00;99.90;12.90;101513.00;;;;5004502;27;104169;-66
2023/10/06 05:38:12;;;;;;;2.23;1.70;;;12.90;99.90;12.80;101518.00;;;;5005084;27;88104;-67
2023/10/06 05:40:42;;;;;;;12.30;1.37;;;12.80;99.90;12.80;101517.00;;;;5002764;27;87924;-66
2023/10/06 05:43:17;;;;;;;5.23;1.73;;;12.80;99.90;12.70;101521.00;;;;5006063;27;88452;-69
2023/10/06 05:45:45;;;;;;;2.90;1.73;;;12.80;99.90;12.70;101515.00;;;;4984297;27;86449;-69
2023/10/06 05:48:12;;;;;;;1.33;1.13;;;12.70;99.90;12.60;101513.00;;;;4996930;27;87400;-70
2023/10/06 05:50:43;;;;;;;2.13;1.63;;;12.60;99.90;12.60;101515.00;;;;5000690;27;89783;-69
2023/10/06 05:53:12;;;;;;;3.27;1.90;;;12.60;99.90;12.50;101517.00;;;;4989943;27;88624;-69
2023/10/06 05:55:41;;;;;;;2.83;1.50;;;12.50;99.90;12.50;101513.00;;;;4999942;27;88354;-70
2023/10/06 05:58:14;;;;;;;3.17;2.13;;;12.50;99.90;12.50;101518.00;;;;5001691;27;87147;-71
2023/10/06 06:00:52;;;;;;;3.50;1.77;;;12.50;99.90;12.50;101510.00;;;;4995731;27;87633;-70
2023/10/06 06:03:23;;;;;;;3.03;1.83;;;12.50;99.90;12.60;101516.00;;;;4996773;27;87541;-69
2023/10/06 06:05:57;;;;;;;5.87;2.13;;;12.50;99.90;12.60;101505.00;;;;5008871;27;87509;-70
2023/10/06 06:08:23;;;;;;;1.50;1.40;;;12.60;99.90;12.70;101512.00;;;;4991885;27;87305;-69
2023/10/06 06:10:49;;;;;;;3.17;1.67;;;12.70;99.90;12.90;101510.00;;;;5000015;27;86466;-69
2023/10/06 06:13:18;;;;;;;1.37;1.27;;;12.80;99.90;13.00;101512.00;;;;4993421;27;87128;-71
2023/10/06 06:15:44;;;;;;;3.47;1.23;;;12.90;99.90;13.10;101516.00;;;;4995669;27;87760;-69
2023/10/06 06:18:13;;;;;;;1.43;1.30;;;13.00;99.90;13.20;101510.00;;;;4994288;27;88194;-71
2023/10/06 06:20:43;;;;;;;4.40;1.17;;;13.20;99.90;13.40;101517.00;;;;5010363;27;87108;-69
2023/10/06 06:23:15;;;;;;;2.00;1.53;;;13.30;99.90;13.50;101524.00;;;;5001758;27;87575;-69
2023/10/06 06:25:44;;;;;;;2.70;1.63;;;13.40;99.90;13.60;101529.00;;;;5007395;27;87152;-70
2023/10/06 06:28:21;;;;;;;1.63;1.43;;;13.50;99.90;13.70;101528.00;;;;4998966;27;87671;-70
2023/10/06 06:30:47;;;;;;;2.67;1.97;;;13.60;99.90;13.70;101529.00;;;;5014728;27;87272;-71
2023/10/06 06:33:19;;;;;;;5.45;1.52;;;13.70;99.90;13.80;101531.00;;;;4991440;27;87547;-69
2023/10/06 06:35:45;;;;;;;3.43;1.43;;;13.80;99.90;13.90;101538.00;;;;5001466;27;86311;-70
2023/10/06 06:38:12;;;;;;;3.70;1.87;;;13.90;99.90;14.00;101532.00;;;;5000806;27;87380;-69
2023/10/06 06:40:38;;;;;;;1.80;1.50;;;14.00;99.90;14.20;101530.00;;;;5011193;27;87736;-69
2023/10/06 06:43:09;;;;;;;2.93;1.27;;;14.10;99.90;14.30;101527.00;;;;4996188;27;88365;-69
2023/10/06 06:45:42;;;;;;;1.27;1.15;;;14.20;99.90;14.50;101526.00;;;;5012348;27;87099;-69
2023/10/06 06:48:13;;;;;;;2.95;1.50;;;14.40;99.90;14.70;101522.00;;;;4979827;27;87556;-70
2023/10/06 06:50:43;;;;;;;4.80;1.53;;;14.60;99.90;14.80;101522.00;;;;5012267;27;88883;-71
2023/10/06 06:53:13;;;;;;;3.77;1.40;;;14.70;99.90;15.00;101524.00;;;;4994131;27;87150;-69
2023/10/06 06:55:40;;;;;;;3.80;1.52;;;14.90;99.90;15.20;101523.00;;;;5017315;27;87109;-70
2023/10/06 06:58:10;;;;;;;4.03;1.48;;;15.10;99.90;15.40;101525.00;;;;4993242;27;87217;-69
2023/10/06 07:00:39;;;;;;;1.92;1.73;;;15.20;99.90;15.50;101525.00;;;;4994558;27;86967;-69
2023/10/06 07:03:06;;;;;;;7.05;2.10;;;15.40;99.90;15.70;101509.00;;;;5010393;27;87246;-69
2023/10/06 07:05:34;;;;;;;0.93;0.93;;;15.50;99.90;15.90;101507.00;;;;5017228;27;87141;-69
2023/10/06 07:08:03;;;;;;;1.80;1.65;;;15.70;99.90;16.10;101511.00;;;;5010775;27;88326;-70
2023/10/06 07:10:30;;;;;;;1.35;1.10;;;15.90;99.90;16.30;101518.00;;;;4984195;27;89638;-69
2023/10/06 07:13:00;;;;;;;3.10;1.23;;;16.10;99.90;16.40;101521.00;;;;5012424;27;87673;-71
2023/10/06 07:15:30;;;;;;;2.65;1.40;;;16.30;99.90;16.50;101512.00;;;;5015690;27;87259;-70
2023/10/06 07:17:58;;;;;;;1.73;1.20;;;16.40;99.90;16.50;101524.00;;;;4986370;27;87298;-70
2023/10/06 07:20:27;;;;;;;0.98;0.93;;;16.40;99.90;16.60;101531.00;;;;4999808;27;87652;-70
2023/10/06 07:23:03;;;;;;;1.30;1.20;;;16.50;99.90;16.60;101519.00;;;;5008816;27;87339;-69
2023/10/06 07:25:29;;;;;;;1.75;1.48;;;16.50;99.90;16.70;101524.00;;;;5016586;27;86413;-70
2023/10/06 07:27:58;;;;;;;2.05;1.38;;;16.60;99.90;16.90;101530.00;;;;5002654;27;87473;-70
2023/10/06 07:30:27;;;;;;;1.42;1.17;;;16.80;99.90;17.20;101527.00;;;;5001451;27;87443;-70
2023/10/06 07:32:54;;;;;;;2.88;1.17;;;17.00;99.90;17.40;101539.00;;;;4998326;27;88298;-70
2023/10/06 07:38:18;;;;;;;3.05;1.67;;;17.50;99.50;17.60;101521.00;;;;5010406;27;87475;-69
2023/10/06 07:40:44;;;;;;;0.77;0.77;;;17.60;98.90;17.80;101534.00;;;;4986064;27;88038;-69
2023/10/06 07:43:15;;;;;;;3.42;1.23;;;17.70;98.60;17.90;101532.00;;;;4989907;27;87998;-69
2023/10/06 07:45:41;;;;;;;1.20;0.63;;;17.80;98.30;18.10;101521.00;;;;4994741;27;87138;-69
2023/10/06 07:48:28;;;;;;;2.30;1.10;;;18.00;97.60;18.10;101527.00;;;;4989276;27;87191;-70
2023/10/06 07:51:04;;;;;;;2.78;1.40;;;18.10;97.10;18.20;101523.00;;;;4986947;27;86853;-70
2023/10/06 07:53:29;;;;;;;1.73;0.82;;;18.20;96.40;18.20;101543.00;;;;5007348;27;87613;-71
2023/10/06 07:56:08;;;;;;;3.58;1.33;;;18.20;96.40;18.30;101543.00;;;;4996790;27;87248;-69
2023/10/06 07:58:41;;;;;;;1.02;0.95;;;18.20;96.10;18.40;101533.00;;;;5006788;27;88516;-70
2023/10/06 08:01:13;;;;;;;1.55;1.20;;;18.30;96.00;18.50;101538.00;;;;5010870;27;88011;-69
2023/10/06 08:03:41;;;;;;;3.70;1.60;;;18.40;95.80;18.60;101540.00;;;;4996967;27;87008;-70
2023/10/06 08:06:11;;;;;;;4.78;1.48;;;18.50;95.70;18.80;101539.00;;;;5010370;27;87526;-68
2023/10/06 08:08:40;;;;;;;2.25;1.48;;;18.60;95.40;19.00;101546.00;;;;5011986;27;87403;-69
2023/10/06 08:11:08;;;;;;;5.05;1.30;;;18.80;95.10;19.10;101541.00;;;;4998031;27;87994;-70
2023/10/06 08:13:36;;;;;;;1.98;1.45;;;19.00;94.60;19.20;101547.00;;;;4996598;27;87604;-71
2023/10/06 08:16:06;;;;;;;2.58;1.70;;;19.10;94.10;19.30;101563.00;;;;4975869;27;86680;-70
2023/10/06 08:18:32;;;;;;;1.35;0.70;;;19.10;94.00;19.40;101555.00;;;;4994442;27;87990;-70
2023/10/06 08:21:03;;;;;;;2.75;0.82;;;19.30;93.80;19.50;101541.00;;;;5007026;27;116644;-71
2023/10/06 08:23:32;;;;;;;0.93;0.93;;;19.40;93.60;19.70;101525.00;;;;4992194;27;89190;-69
2023/10/06 08:26:07;;;;;;;1.85;1.45;;;19.50;93.30;19.70;101522.00;;;;5007521;27;87528;-71
2023/10/06 08:28:33;;;;;;;3.53;1.45;;;19.60;93.10;19.80;101520.00;;;;4976987;27;87103;-70
2023/10/06 08:31:06;;;;;;;8.60;1.65;;;19.70;92.70;19.90;101512.00;;;;5011630;27;87453;-70
2023/10/06 08:33:32;;;;;;;3.38;1.63;;;19.70;92.40;19.90;101517.00;;;;5014264;27;87589;-70
2023/10/06 08:36:02;;;;;;;2.72;1.20;;;19.70;91.70;19.70;101510.00;;;;5012114;27;87018;-69
2023/10/06 08:38:32;;;;;;;3.83;1.80;;;19.60;91.40;19.50;101505.00;;;;5011843;27;87593;-69
2023/10/06 08:41:07;;;;;;;1.55;1.15;;;19.50;91.50;19.40;101509.00;;;;5012997;27;86889;-70
2023/10/06 08:43:38;;;;;;;1.38;1.00;;;19.40;92.10;19.40;101515.00;;;;5009931;27;87359;-69
2023/10/06 08:46:05;;;;;;;4.15;1.75;;;19.30;92.10;19.30;101523.00;;;;4998858;27;87510;-70
2023/10/06 08:48:33;;;;;;;1.80;0.77;;;19.30;92.20;19.30;101521.00;;;;5009067;27;90099;-70
2023/10/06 08:51:03;;;;;;;2.50;1.88;;;19.20;91.90;19.30;101521.00;;;;5011459;27;88610;-71
2023/10/06 08:53:31;;;;;;;1.63;1.33;;;19.20;92.10;19.30;101508.00;;;;5005026;27;87916;-69
2023/10/06 08:55:57;;;;;;;6.70;1.77;;;19.20;92.20;19.50;101507.00;;;;4997626;27;87471;-70
2023/10/06 08:58:26;;;;;;;2.25;1.05;;;19.30;92.10;19.60;101493.00;;;;5013455;27;89397;-69
2023/10/06 09:00:57;;;;;;;2.25;1.10;;;19.40;92.10;19.70;101483.00;;;;4975538;27;89328;-69
2023/10/06 09:03:22;;;;;;;4.47;1.05;;;19.50;91.20;19.80;101482.00;;;;4991553;27;87514;-69
2023/10/06 09:05:50;;;;;;;1.45;1.10;;;19.60;91.40;19.90;101474.00;;;;4981791;27;109928;-69
2023/10/06 09:08:19;;;;;;;3.13;1.17;;;19.70;91.20;20.10;101473.00;;;;5011453;27;87182;-70
2023/10/06 09:10:51;;;;;;;1.60;1.10;;;19.90;91.00;20.10;101470.00;;;;4978985;27;90264;-68
2023/10/06 09:13:19;;;;;;;3.53;2.05;;;20.00;90.20;20.10;101456.00;;;;4994599;27;89253;-70
2023/10/06 09:16:08;;;;;;;2.03;1.60;;;19.90;90.20;20.10;101456.00;;;;4984337;27;87437;-68
2023/10/06 09:18:35;;;;;;;4.22;1.58;;;19.90;89.70;20.20;101461.00;;;;5010995;27;87877;-67
2023/10/06 09:21:20;;;;;;;3.85;1.67;;;20.00;90.00;20.20;101446.00;;;;4982023;27;87753;-71
2023/10/06 09:23:47;;;;;;;1.45;1.27;;;20.10;89.60;20.30;101456.00;;;;5013732;27;87523;-70
2023/10/06 09:26:25;;;;;;;2.17;1.50;;;20.10;89.50;20.40;101441.00;;;;4981324;27;87615;-70
2023/10/06 09:28:56;;;;;;;2.35;1.20;;;20.20;89.20;20.40;101448.00;;;;4995541;27;88210;-70
2023/10/06 09:31:44;;;;;;;1.83;1.48;;;20.30;88.80;20.40;101431.00;;;;5015139;27;87450;-71
2023/10/06 09:34:11;;;;;;;4.53;1.45;;;20.20;88.80;20.50;101417.00;;;;4997402;27;87782;-70
2023/10/06 09:36:42;;;;;;;2.53;1.33;;;20.30;88.60;20.60;101427.00;;;;5013473;27;87776;-71
2023/10/06 09:39:32;;;;;;;2.15;1.42;;;20.40;88.40;20.70;101421.00;;;;4994932;27;87962;-69
2023/10/06 09:42:01;;;;;;;2.08;1.67;;;20.50;87.40;20.80;101426.00;;;;4995792;27;88276;-69
2023/10/06 09:44:27;;;;;;;2.05;0.98;;;20.60;86.70;20.80;101437.00;;;;5011629;27;87490;-70
2023/10/06 09:46:53;;;;;;;1.63;1.20;;;20.60;85.60;20.60;101445.00;;;;4997056;27;110437;-70
2023/10/06 09:49:21;;;;;;;2.00;1.52;;;20.50;85.60;20.50;101455.00;;;;5014607;27;87601;-70
2023/10/06 09:51:52;;;;;;;1.35;1.25;;;20.40;85.70;20.30;101459.00;;;;5016821;27;88953;-69
2023/10/06 09:54:20;;;;;;;2.03;1.35;;;20.30;85.70;20.30;101459.00;;;;5011975;27;87524;-71
2023/10/06 09:56:57;;;;;;;1.67;0.75;;;20.20;86.30;20.40;101447.00;;;;4998531;27;86730;-69
2023/10/06 09:59:26;;;;;;;2.45;1.40;;;20.20;85.90;20.40;101457.00;;;;5013750;27;87627;-70
2023/10/06 10:01:53;;;;;;;2.25;1.35;;;20.30;86.00;20.50;101450.00;;;;5015059;27;87553;-70
2023/10/06 10:04:22;;;;;;;2.80;1.00;;;20.30;85.30;20.70;101454.00;;;;4997447;27;88260;-70
2023/10/06 10:06:50;;;;;;;4.13;1.05;;;20.50;85.30;21.00;101451.00;;;;4998003;27;87327;-70
2023/10/06 10:09:16;;;;;;;3.15;1.30;;;20.70;83.70;21.20;101441.00;;;;5011931;27;88084;-70
2023/10/06 10:11:57;;;;;;;3.03;1.33;;;20.90;82.30;21.40;101433.00;;;;5000016;27;87600;-69
2023/10/06 10:14:39;;;;;;;1.55;1.30;;;21.10;81.50;21.60;101426.00;;;;4990016;27;87491;-69
2023/10/06 10:17:30;;;;;;;1.05;0.85;;;21.30;80.70;22.00;101417.00;;;;4995080;27;89032;-69
2023/10/06 10:19:58;;;;;;;2.30;1.05;;;21.60;80.80;22.30;101414.00;;;;4997536;27;87797;-70
2023/10/06 10:22:24;;;;;;;1.33;1.10;;;21.90;76.90;22.40;101410.00;;;;4990136;27;88910;-69
2023/10/06 10:24:50;;;;;;;1.50;1.17;;;22.10;74.10;22.40;101389.00;;;;4978235;27;87366;-70
2023/10/06 10:27:18;;;;;;;3.03;1.02;;;22.20;73.40;22.40;101399.00;;;;5014455;27;87507;-70
2023/10/06 10:29:47;;;;;;;1.02;0.93;;;22.20;72.90;22.60;101397.00;;;;5001617;27;88872;-69
2023/10/06 10:32:14;;;;;;;3.45;1.02;;;22.30;73.10;22.70;101399.00;;;;5011585;27;87645;-69
2023/10/06 10:35:14;;;;;;;2.63;0.90;;;22.40;71.30;22.80;101403.00;;;;4991449;27;87707;-69
2023/10/06 10:38:07;;;;;;;2.58;0.90;;;22.60;69.80;23.00;101397.00;;;;4979708;27;87782;-70
2023/10/06 10:40:48;;;;;;;1.05;0.80;;;22.70;70.30;23.30;101392.00;;;;4973886;27;87741;-70
2023/10/06 10:43:15;;;;;;;0.73;0.50;;;22.90;69.40;23.40;101361.00;;;;5011182;27;87555;-71
2023/10/06 10:45:45;;;;;;;2.65;1.00;;;23.10;67.70;23.50;101360.00;;;;5011632;27;87483;-70
2023/10/06 10:48:17;;;;;;;2.80;0.88;;;23.20;66.50;23.50;101347.00;;;;5006941;27;89351;-71
2023/10/06 10:51:10;;;;;;;2.03;1.13;;;23.30;63.60;23.50;101358.00;;;;5007058;27;87371;-69
2023/10/06 10:53:44;;;;;;;0.95;0.75;;;23.30;60.30;23.30;101342.00;;;;4997001;27;88819;-69
2023/10/06 10:56:35;;;;;;;5.97;0.95;;;23.20;60.90;23.20;101339.00;;;;4981001;27;88599;-70
2023/10/06 10:59:04;;;;;;;2.33;0.70;;;23.00;59.60;23.20;101341.00;;;;5008449;27;87655;-70
2023/10/06 11:01:42;;;;;;;0.80;0.80;;;23.00;60.50;23.30;101341.00;;;;4990280;27;87853;-70
2023/10/06 11:04:14;;;;;;;4.93;1.55;;;23.00;60.20;23.30;101352.00;;;;5011477;27;87781;-69
2023/10/06 11:06:43;;;;;;;0.90;0.70;;;23.10;59.70;23.40;101341.00;;;;5010758;27;87936;-70
2023/10/06 11:09:30;;;;;;;2.13;0.90;;;23.20;58.60;23.30;101343.00;;;;5005935;27;87355;-71